東京理科大学Ⅰ部体育局航空部

このエントリーをはてなブックマークに追加

ようこそ、理科大航空部HPへ! ここでは、航空部に関する情報や、活動などをお知らせしています。


METAR・TAF

TOKYO INTERNATIONAL
Metar
RJTT 210400Z 18017KT 9999 FEW020CB 33/23 Q1012 NOSIG

04:00 UTC

Wind: 180° 17kt

Visibility: 9999 m

Sky: FEW 2000 ft

Temp: 33 deg C / 91.4 deg F

Dewpoint: 23 deg C / 73.4 deg F

Pressure: 1012 hPa

TAF
TAF RJTT 202308Z 2100/2206 17013KT 9999 FEW030
NARITA INTERNATIONAL
Metar
RJAA 210400Z 14014KT 9999 -SHRA FEW020 SCT025CB 31/24 Q1013 TEMPO -TSRA

04:00 UTC

Wind: 140° 14kt

Visibility: 9999 m

Sky: FEW 2000 ft

Temp: 31 deg C / 87.8 deg F

Dewpoint: 24 deg C / 75.2 deg F

Pressure: 1013 hPa

TAF
TAF AMD RJAA 210318Z 2103/2206 16012KT 8000 SCT015 BKN030 TEMPO 2103/2106 -TSRA FEW015 FEW020CB BKN030 TEMPO 2115/2121 4000 BR FEW005 BKN008